»·PEaware :: DAL580 KSAN-KRNO

DAL580 :: KSAN-KRNO

FLIGHT INFORMATION

Flight Status: Arrived
Operator:
Delta Air Lines
More flights by this operator :: More flights under this callsign
Pilot: Kevin M. (7)
Aircraft: BOEING 737-800
(B738)
More flights by this aircraft type
Origin: KSAN San Diego Intl-Lindbergh
United States
Destination: KRNO Reno/Tahoe Intl
United States
More flights between these airports :: More routes between these airports
Route: +SWR
File this flight plan on PilotEdge
Remarks:
Altitude:
(Current/Filed)
38,000ft
Speed:
(Current/Filed)
468kts
Departed: 28-Aug-19 12:02 PM
Arrived: 28-Aug-19 01:12 PM
Distance/Time
Traveled:
425nm/1:10
Distance/Time
To Go:
Arrived

Flight Plot

Page will automatically refresh every two minutes.

Flight plan parsing failed; only flown route is shown


Map Options




Map Legend


Flown Route
Filed Route
Departure Airport
Arrival Airport
Navaid (VOR, NDB)
Fix

Horizontal Profiles

Position Reports

Time Latitude Longitude Heading Altitude Ground
Speed
28-Aug-19 11:31 32.733385 -117.204639 80 17ft 0kts
28-Aug-19 11:32 32.733385 -117.204639 80 17ft 0kts
28-Aug-19 11:33 32.733385 -117.204639 80 17ft 0kts
28-Aug-19 11:34 32.733385 -117.204639 80 17ft 0kts
28-Aug-19 11:35 32.733385 -117.204639 80 17ft 0kts
28-Aug-19 11:36 32.733385 -117.204639 80 17ft 0kts
28-Aug-19 11:37 32.733385 -117.204639 80 17ft 0kts
28-Aug-19 11:38 32.733385 -117.204639 80 17ft 0kts
28-Aug-19 11:39 32.733385 -117.204639 80 17ft 0kts
28-Aug-19 11:40 32.733385 -117.204639 80 17ft 0kts
28-Aug-19 11:41 32.733385 -117.204639 80 17ft 0kts
28-Aug-19 11:42 32.733385 -117.204639 80 17ft 0kts
28-Aug-19 11:43 32.733385 -117.204639 80 17ft 0kts
28-Aug-19 11:44 32.733385 -117.204639 80 17ft 0kts
28-Aug-19 11:45 32.733385 -117.204639 80 17ft 0kts
28-Aug-19 11:46 32.733385 -117.204639 80 17ft 0kts
28-Aug-19 11:47 32.733385 -117.204639 80 17ft 0kts
28-Aug-19 11:48 32.733385 -117.204639 80 17ft 0kts
28-Aug-19 11:49 32.733358 -117.205279 99 17ft 2kts
28-Aug-19 11:50 32.733298 -117.205852 48 17ft 0kts
28-Aug-19 11:51 32.733298 -117.205852 48 17ft 0kts
28-Aug-19 11:52 32.733348 -117.205786 48 17ft 5kts
28-Aug-19 11:53 32.735643 -117.204307 54 17ft 15kts
28-Aug-19 11:54 32.734078 -117.196063 106 21ft 29kts
28-Aug-19 11:55 32.731820 -117.186792 109 20ft 29kts
28-Aug-19 11:56 32.729832 -117.178632 105 21ft 26kts
28-Aug-19 11:57 32.729465 -117.177104 95 23ft 0kts
28-Aug-19 11:58 32.729465 -117.177104 95 23ft 0kts
28-Aug-19 11:59 32.729465 -117.177104 95 23ft 0kts
28-Aug-19 12:00 32.729928 -117.175774 20 26ft 12kts
28-Aug-19 12:01 32.733632 -117.190183 283 21ft 151kts
28-Aug-19 12:02 32.755359 -117.241780 302 2130ft 211kts
28-Aug-19 12:03 32.793213 -117.307710 302 4317ft 271kts
28-Aug-19 12:04 32.839909 -117.381726 305 7590ft 289kts
28-Aug-19 12:05 32.890236 -117.459679 304 10294ft 318kts
28-Aug-19 12:06 32.948073 -117.549628 304 12849ft 353kts
28-Aug-19 12:07 33.008665 -117.644081 304 16004ft 367kts
28-Aug-19 12:08 33.075436 -117.743174 314 17997ft 414kts
28-Aug-19 12:09 33.170459 -117.838581 317 19824ft 460kts
28-Aug-19 12:10 33.270962 -117.937816 318 22585ft 476kts
28-Aug-19 12:11 33.374938 -118.039237 318 25072ft 492kts
28-Aug-19 12:12 33.481980 -118.144123 318 27637ft 500kts
28-Aug-19 12:13 33.591009 -118.245690 328 30728ft 493kts
28-Aug-19 12:14 33.714861 -118.312908 333 33378ft 485kts
28-Aug-19 12:15 33.837463 -118.377378 335 35569ft 479kts
28-Aug-19 12:16 33.959845 -118.438887 335 37282ft 476kts
28-Aug-19 12:17 34.088966 -118.474514 353 38050ft 481kts
28-Aug-19 12:18 34.221393 -118.493423 350 38044ft 479kts
28-Aug-19 12:19 34.353027 -118.513745 350 38048ft 479kts
28-Aug-19 12:20 34.484959 -118.534178 350 38064ft 479kts
28-Aug-19 12:21 34.616999 -118.554692 350 38082ft 479kts
28-Aug-19 12:22 34.748876 -118.575244 350 38074ft 479kts
28-Aug-19 12:23 34.880512 -118.595822 350 38153ft 479kts
28-Aug-19 12:24 35.009268 -118.629437 332 38168ft 470kts
28-Aug-19 12:25 35.104672 -118.708197 316 38123ft 460kts
28-Aug-19 12:26 35.202555 -118.808160 316 37990ft 460kts
28-Aug-19 12:27 35.300818 -118.908505 316 37972ft 461kts
28-Aug-19 12:28 35.399007 -119.009014 316 37972ft 462kts
28-Aug-19 12:30 35.508002 -119.092711 337 37975ft 474kts
28-Aug-19 12:31 35.639591 -119.118260 351 37965ft 481kts
28-Aug-19 12:32 35.771820 -119.135278 350 37973ft 481kts
28-Aug-19 12:33 35.904573 -119.152688 350 37988ft 481kts
28-Aug-19 12:34 36.037590 -119.170222 350 37999ft 481kts
28-Aug-19 12:35 36.170088 -119.187766 350 37987ft 480kts
28-Aug-19 12:36 36.302923 -119.205429 350 37985ft 481kts
28-Aug-19 12:37 36.435454 -119.223123 350 37981ft 481kts
28-Aug-19 12:38 36.567705 -119.240850 350 37980ft 480kts
28-Aug-19 12:39 36.700436 -119.258713 350 37978ft 481kts
28-Aug-19 12:40 36.833458 -119.276685 350 37973ft 480kts
28-Aug-19 12:41 36.965968 -119.294658 350 37972ft 481kts
28-Aug-19 12:42 37.098665 -119.312720 350 37972ft 479kts
28-Aug-19 12:43 37.228621 -119.330482 349 38134ft 479kts
28-Aug-19 12:44 37.361083 -119.348658 349 38234ft 479kts
28-Aug-19 12:45 37.493089 -119.366834 349 38235ft 478kts
28-Aug-19 12:46 37.625247 -119.385106 349 38334ft 479kts
28-Aug-19 12:47 37.757573 -119.403467 349 38336ft 478kts
28-Aug-19 12:47 37.864739 -119.418286 349 38333ft 447kts
28-Aug-19 12:49 38.011488 -119.438832 349 38337ft 455kts
28-Aug-19 12:50 38.134827 -119.455735 350 37006ft 461kts
28-Aug-19 12:50 38.242089 -119.470132 350 35810ft 467kts
28-Aug-19 12:52 38.391866 -119.490652 350 34568ft 469kts
28-Aug-19 12:52 38.499053 -119.505665 350 32772ft 463kts
28-Aug-19 12:54 38.644827 -119.554293 323 29344ft 480kts
28-Aug-19 12:54 38.724291 -119.647835 310 28544ft 465kts
28-Aug-19 12:55 38.814427 -119.769645 310 25138ft 477kts
28-Aug-19 12:56 38.906793 -119.895051 310 21788ft 482kts
28-Aug-19 12:57 38.995292 -120.015541 312 19623ft 434kts
28-Aug-19 12:58 39.096434 -120.027874 31 18912ft 370kts
28-Aug-19 12:59 39.183894 -119.958618 33 17528ft 415kts
28-Aug-19 13:00 39.280888 -119.881041 33 15279ft 397kts
28-Aug-19 13:01 39.369556 -119.810507 33 13979ft 358kts
28-Aug-19 13:02 39.453347 -119.743979 33 11968ft 348kts
28-Aug-19 13:03 39.537428 -119.692917 5 10382ft 319kts
28-Aug-19 13:04 39.621879 -119.688761 3 9056ft 295kts
28-Aug-19 13:05 39.703175 -119.697940 322 8777ft 309kts
28-Aug-19 13:06 39.696626 -119.786789 196 7579ft 269kts
28-Aug-19 13:07 39.630330 -119.777715 164 7179ft 226kts
28-Aug-19 13:08 39.574614 -119.769120 180 5641ft 171kts
28-Aug-19 13:09 39.528015 -119.769179 179 4770ft 166kts
28-Aug-19 13:10 39.491496 -119.769248 180 4410ft 63kts
28-Aug-19 13:11 39.493511 -119.771535 359 4410ft 33kts
28-Aug-19 13:12 39.502866 -119.771496 359 4412ft 33kts
28-Aug-19 13:13 39.504829 -119.772255 286 4413ft 0kts
28-Aug-19 13:14 39.504829 -119.772255 286 4413ft 0kts
28-Aug-19 13:15 39.504829 -119.772255 286 4413ft 0kts
28-Aug-19 13:16 39.504829 -119.772255 286 4413ft 0kts
28-Aug-19 13:17 39.504829 -119.772255 286 4413ft 0kts
28-Aug-19 13:18 39.504829 -119.772255 286 4413ft 0kts
28-Aug-19 13:19 39.504829 -119.772255 286 4413ft 0kts
28-Aug-19 13:20 39.504829 -119.772255 286 4413ft 0kts

Navigation Log

Ident Type
Flight plan parsing failed, navigation log unavailable